createdAt,value
2023-01-27T00:01:03.594Z,8.27
2023-01-27T00:03:30.573Z,8.77
2023-01-27T00:06:01.272Z,8.80
2023-01-27T00:08:29.518Z,8.27
2023-01-27T00:11:19.269Z,7.63
2023-01-27T00:13:46.041Z,8.82
2023-01-27T00:16:12.813Z,7.90
2023-01-27T00:18:39.725Z,7.95
2023-01-27T00:21:25.360Z,7.85
2023-01-27T00:24:10.853Z,8.35
2023-01-27T00:26:37.673Z,8.38
2023-01-27T00:29:04.453Z,8.05
2023-01-27T00:31:49.940Z,7.85
2023-01-27T00:34:16.712Z,8.07
2023-01-27T00:36:43.456Z,8.43
2023-01-27T00:39:13.433Z,8.18
2023-01-27T00:41:40.997Z,7.60
2023-01-27T00:44:13.075Z,8.20
2023-01-27T00:46:41.576Z,8.18
2023-01-27T00:49:09.892Z,7.43
2023-01-27T00:51:36.954Z,8.52
2023-01-27T00:54:04.952Z,9.00
2023-01-27T00:56:32.042Z,8.43
2023-01-27T00:59:00.124Z,8.02
2023-01-27T01:01:28.161Z,8.20
2023-01-27T01:03:54.940Z,8.60
2023-01-27T01:06:22.036Z,9.00
2023-01-27T01:08:48.784Z,8.93
2023-01-27T01:11:17.504Z,8.95
2023-01-27T01:13:45.969Z,9.07
2023-01-27T01:16:20.135Z,9.15
2023-01-27T01:18:47.749Z,9.90
2023-01-27T01:21:15.099Z,9.60
2023-01-27T01:23:45.242Z,9.75
2023-01-27T01:26:14.272Z,10.05
2023-01-27T01:28:41.015Z,9.43
2023-01-27T01:31:13.676Z,8.98
2023-01-27T01:33:40.826Z,9.88
2023-01-27T01:36:15.725Z,8.90
2023-01-27T01:38:42.918Z,8.52
2023-01-27T01:41:19.162Z,9.82
2023-01-27T01:43:45.903Z,9.60
2023-01-27T01:46:13.428Z,9.27
2023-01-27T01:48:59.475Z,9.32
2023-01-27T01:51:38.595Z,9.18
2023-01-27T01:54:13.893Z,7.80
2023-01-27T01:56:57.483Z,8.88
2023-01-27T01:59:34.401Z,8.80
2023-01-27T02:02:07.348Z,8.40
2023-01-27T02:04:45.700Z,8.90
2023-01-27T02:07:22.340Z,7.82
2023-01-27T02:09:49.575Z,8.18
2023-01-27T02:12:16.336Z,8.50
2023-01-27T02:14:43.477Z,8.38
2023-01-27T02:17:14.048Z,7.85
2023-01-27T02:20:06.270Z,8.38
2023-01-27T02:23:04.584Z,7.95
2023-01-27T02:25:37.169Z,7.82
2023-01-27T02:28:08.165Z,8.27
2023-01-27T02:30:35.412Z,8.07
2023-01-27T02:33:02.232Z,8.68
2023-01-27T02:35:42.736Z,8.50
2023-01-27T02:38:13.463Z,7.53
2023-01-27T02:40:41.516Z,7.97
2023-01-27T02:43:08.345Z,7.32
2023-01-27T02:45:35.171Z,8.32
2023-01-27T02:48:03.182Z,8.07
2023-01-27T02:50:30.211Z,7.40
2023-01-27T02:52:56.978Z,8.20
2023-01-27T02:55:23.756Z,8.73
2023-01-27T02:57:50.532Z,7.78
2023-01-27T03:00:18.097Z,8.25
2023-01-27T03:02:44.936Z,7.63
2023-01-27T03:05:12.896Z,7.18
2023-01-27T03:07:39.905Z,6.72
2023-01-27T03:10:07.332Z,7.50
2023-01-27T03:12:34.080Z,7.00
2023-01-27T03:15:19.666Z,7.40
2023-01-27T03:18:04.966Z,7.10
2023-01-27T03:20:31.717Z,6.75
2023-01-27T03:22:58.672Z,7.50
2023-01-27T03:25:25.481Z,7.57
2023-01-27T03:27:52.244Z,7.85
2023-01-27T03:30:19.095Z,9.13
2023-01-27T03:32:48.718Z,8.20
2023-01-27T03:35:16.580Z,8.13
2023-01-27T03:38:02.762Z,7.55
2023-01-27T03:40:48.527Z,7.97
2023-01-27T03:43:33.871Z,8.77
2023-01-27T03:46:19.429Z,8.25
2023-01-27T03:48:55.433Z,7.90
2023-01-27T03:51:25.142Z,8.45
2023-01-27T03:53:52.630Z,8.57
2023-01-27T03:56:21.685Z,8.15
2023-01-27T03:58:50.504Z,8.48
2023-01-27T04:01:21.198Z,8.05
2023-01-27T04:04:08.302Z,8.13
2023-01-27T04:06:57.904Z,8.38
2023-01-27T04:09:36.570Z,8.70
2023-01-27T04:12:06.913Z,8.38
2023-01-27T04:14:37.927Z,8.38
2023-01-27T04:17:18.187Z,7.95
2023-01-27T04:19:46.608Z,8.13
2023-01-27T04:22:15.878Z,7.70
2023-01-27T04:24:43.694Z,8.38
2023-01-27T04:27:20.245Z,8.20
2023-01-27T04:29:47.109Z,6.80
2023-01-27T04:32:14.229Z,7.45
2023-01-27T04:34:42.061Z,7.72
2023-01-27T04:37:09.939Z,6.75
2023-01-27T04:39:37.088Z,5.70
2023-01-27T04:42:04.312Z,5.90
2023-01-27T04:44:31.167Z,6.13
2023-01-27T04:46:58.042Z,5.72
2023-01-27T04:49:26.674Z,5.88
2023-01-27T04:51:53.734Z,5.70
2023-01-27T04:54:20.474Z,5.85
2023-01-27T04:57:05.566Z,6.45
2023-01-27T04:59:32.354Z,5.22
2023-01-27T05:01:59.481Z,5.78
2023-01-27T05:04:27.046Z,4.82
2023-01-27T05:06:54.834Z,5.60
2023-01-27T05:09:21.662Z,5.72
2023-01-27T05:11:48.999Z,5.32
2023-01-27T05:14:15.742Z,5.22
2023-01-27T05:16:42.600Z,4.75
2023-01-27T05:19:09.808Z,4.90
2023-01-27T05:21:36.655Z,4.53
2023-01-27T05:24:03.564Z,4.72
2023-01-27T05:26:30.396Z,5.18
2023-01-27T05:28:58.717Z,5.47
2023-01-27T05:31:29.428Z,4.70
2023-01-27T05:33:59.931Z,5.05
2023-01-27T05:36:28.204Z,5.20
2023-01-27T05:38:55.820Z,4.95
2023-01-27T05:41:23.329Z,4.95
2023-01-27T05:43:55.620Z,4.90
2023-01-27T05:46:26.118Z,4.78
2023-01-27T05:48:56.503Z,5.00
2023-01-27T05:51:25.975Z,4.80
2023-01-27T05:53:53.998Z,5.13
2023-01-27T05:56:20.833Z,5.10
2023-01-27T05:58:47.601Z,5.18
2023-01-27T06:01:18.166Z,4.95
2023-01-27T06:03:46.274Z,4.93
2023-01-27T06:06:15.795Z,4.70
2023-01-27T06:08:43.678Z,4.80
2023-01-27T06:11:10.402Z,5.13
2023-01-27T06:13:39.038Z,4.72
2023-01-27T06:16:13.118Z,5.00
2023-01-27T06:18:40.467Z,4.82
2023-01-27T06:21:10.909Z,5.63
2023-01-27T06:23:38.580Z,4.80
2023-01-27T06:26:16.229Z,5.05
2023-01-27T06:28:43.147Z,4.75
2023-01-27T06:31:14.374Z,4.57
2023-01-27T06:33:41.732Z,4.60
2023-01-27T06:36:12.386Z,4.57
2023-01-27T06:38:39.547Z,4.63
2023-01-27T06:41:07.213Z,4.20
2023-01-27T06:43:34.274Z,4.30
2023-01-27T06:46:02.570Z,3.75
2023-01-27T06:48:31.203Z,4.38
2023-01-27T06:50:58.139Z,4.40
2023-01-27T06:53:25.127Z,4.80
2023-01-27T06:56:00.657Z,4.45
2023-01-27T06:58:28.401Z,4.40
2023-01-27T07:00:56.375Z,4.80
2023-01-27T07:03:23.389Z,5.70
2023-01-27T07:05:50.617Z,4.95
2023-01-27T07:08:17.415Z,5.00
2023-01-27T07:10:44.203Z,5.18
2023-01-27T07:13:15.665Z,5.25
2023-01-27T07:15:42.836Z,5.03
2023-01-27T07:18:12.593Z,4.72
2023-01-27T07:20:41.111Z,4.97
2023-01-27T07:23:09.395Z,5.35
2023-01-27T07:25:36.225Z,5.60
2023-01-27T07:28:03.881Z,5.75
2023-01-27T07:30:31.676Z,6.57
2023-01-27T07:33:05.197Z,6.22
2023-01-27T07:35:32.129Z,7.25
2023-01-27T07:37:59.140Z,7.20
2023-01-27T07:40:26.166Z,7.50
2023-01-27T07:42:52.967Z,7.65
2023-01-27T07:45:19.710Z,7.63
2023-01-27T07:47:46.530Z,7.45
2023-01-27T07:50:13.594Z,7.57
2023-01-27T07:52:40.568Z,7.63
2023-01-27T07:55:08.220Z,7.95
2023-01-27T07:57:35.043Z,8.40
2023-01-27T08:00:02.127Z,7.63
2023-01-27T08:02:28.868Z,6.13
2023-01-27T08:04:55.625Z,6.60
2023-01-27T08:07:22.950Z,6.13
2023-01-27T08:09:49.793Z,6.22
2023-01-27T08:12:16.627Z,5.90
2023-01-27T08:14:43.356Z,6.03
2023-01-27T08:17:10.177Z,5.13
2023-01-27T08:19:36.897Z,5.05
2023-01-27T08:22:04.254Z,5.40
2023-01-27T08:24:31.888Z,5.05
2023-01-27T08:26:58.632Z,4.97
2023-01-27T08:29:25.413Z,4.95
2023-01-27T08:31:52.181Z,4.78
2023-01-27T08:34:19.258Z,5.00
2023-01-27T08:36:45.997Z,4.22
2023-01-27T08:39:13.076Z,4.47
2023-01-27T08:41:39.803Z,5.13
2023-01-27T08:44:07.062Z,4.60
2023-01-27T08:46:34.459Z,4.50
2023-01-27T08:49:01.335Z,4.57
2023-01-27T08:51:28.741Z,4.93
2023-01-27T08:53:55.497Z,4.10
2023-01-27T08:56:22.669Z,4.45
2023-01-27T08:58:52.166Z,4.90
2023-01-27T09:01:21.072Z,3.95
2023-01-27T09:03:48.531Z,4.38
2023-01-27T09:06:16.948Z,4.18
2023-01-27T09:08:45.247Z,4.25
2023-01-27T09:11:15.720Z,4.28
2023-01-27T09:13:43.724Z,4.20
2023-01-27T09:16:10.728Z,4.32
2023-01-27T09:18:37.634Z,3.40
2023-01-27T09:21:07.462Z,3.63
2023-01-27T09:23:34.620Z,3.45
2023-01-27T09:26:01.611Z,3.75
2023-01-27T09:28:28.559Z,3.40
2023-01-27T09:30:59.854Z,3.30
2023-01-27T09:33:27.667Z,2.88
2023-01-27T09:36:16.688Z,3.17
2023-01-27T09:38:58.355Z,2.80
2023-01-27T09:42:24.806Z,2.60
2023-01-27T09:45:09.406Z,2.55
2023-01-27T09:48:05.746Z,2.47
2023-01-27T09:50:46.622Z,2.63
2023-01-27T09:54:02.192Z,2.83
2023-01-27T09:56:53.268Z,2.53
2023-01-27T09:59:59.970Z,2.80
2023-01-27T10:03:09.049Z,3.05
2023-01-27T10:06:19.780Z,3.00
2023-01-27T10:09:42.647Z,3.00
2023-01-27T10:12:26.973Z,2.53
2023-01-27T10:18:22.039Z,2.40
2023-01-27T10:21:00.956Z,2.45
2023-01-27T10:24:00.561Z,2.38
2023-01-27T10:26:55.480Z,2.40
2023-01-27T10:29:33.013Z,2.13
2023-01-27T10:32:12.946Z,2.30
2023-01-27T10:34:56.415Z,2.22
2023-01-27T10:37:45.566Z,2.10
2023-01-27T10:40:21.666Z,2.60
2023-01-27T10:43:02.142Z,2.08
2023-01-27T10:45:42.674Z,2.17
2023-01-27T10:48:50.351Z,2.28
2023-01-27T10:51:28.421Z,2.20
2023-01-27T10:54:16.302Z,2.30
2023-01-27T10:56:49.638Z,2.17
2023-01-27T11:00:22.984Z,1.85
2023-01-27T11:03:34.241Z,2.15
2023-01-27T11:06:08.866Z,2.22
2023-01-27T11:08:42.132Z,2.40
2023-01-27T11:11:28.666Z,2.20
2023-01-27T11:14:10.706Z,2.40
2023-01-27T11:16:45.506Z,2.03
2023-01-27T11:19:34.999Z,1.67
2023-01-27T11:22:08.961Z,1.58
2023-01-27T11:24:53.410Z,1.50
2023-01-27T11:30:19.620Z,1.30
2023-01-27T11:33:06.551Z,1.27
2023-01-27T11:35:33.999Z,1.33
2023-01-27T11:38:14.477Z,1.60
2023-01-27T11:40:45.588Z,1.73
2023-01-27T11:43:19.572Z,1.92
2023-01-27T11:48:18.019Z,1.48
2023-01-27T11:50:46.110Z,1.50
2023-01-27T11:53:20.453Z,1.70
2023-01-27T11:56:02.262Z,1.60
2023-01-27T11:58:38.249Z,1.85
2023-01-27T12:01:15.861Z,1.75
2023-01-27T12:04:26.185Z,2.20
2023-01-27T12:07:01.312Z,1.90
2023-01-27T12:09:40.180Z,2.15
2023-01-27T12:12:15.529Z,2.00
2023-01-27T12:14:57.765Z,1.70
2023-01-27T12:17:50.911Z,1.70
2023-01-27T12:20:35.512Z,2.05
2023-01-27T12:23:26.554Z,2.10
2023-01-27T12:25:58.091Z,2.28
2023-01-27T12:28:33.527Z,2.38
2023-01-27T12:31:15.205Z,2.03
2023-01-27T12:33:56.360Z,2.42
2023-01-27T12:36:24.908Z,2.35
2023-01-27T12:38:58.179Z,2.35
2023-01-27T12:41:37.766Z,2.60
2023-01-27T12:44:19.872Z,2.58
2023-01-27T12:47:30.490Z,2.80
2023-01-27T12:51:02.565Z,3.25
2023-01-27T12:53:29.301Z,3.05
2023-01-27T12:56:07.975Z,3.00
2023-01-27T12:58:55.329Z,2.97
2023-01-27T13:01:37.686Z,2.70
2023-01-27T13:04:09.655Z,3.17
2023-01-27T13:06:56.385Z,2.70
2023-01-27T13:09:48.584Z,2.75
2023-01-27T13:12:35.873Z,2.75
2023-01-27T13:15:18.082Z,2.60
2023-01-27T13:17:59.869Z,2.67
2023-01-27T13:20:41.430Z,2.70
2023-01-27T13:23:22.520Z,2.50
2023-01-27T13:26:04.365Z,2.28
2023-01-27T13:28:55.533Z,2.72
2023-01-27T13:31:51.959Z,2.60
2023-01-27T13:34:52.826Z,2.60
2023-01-27T13:37:48.728Z,2.50
2023-01-27T13:40:51.402Z,2.40
2023-01-27T13:43:29.215Z,2.42
2023-01-27T13:46:12.445Z,2.67
2023-01-27T13:48:58.694Z,2.60
2023-01-27T13:51:33.054Z,2.30
2023-01-27T13:54:04.017Z,2.30
2023-01-27T13:57:05.754Z,2.50
2023-01-27T14:00:03.758Z,2.88
2023-01-27T14:02:53.449Z,2.40
2023-01-27T14:06:05.448Z,2.53
2023-01-27T14:08:58.121Z,2.38
2023-01-27T14:12:02.050Z,2.78
2023-01-27T14:14:52.627Z,2.30
2023-01-27T14:17:43.512Z,2.15
2023-01-27T14:20:58.910Z,2.15
2023-01-27T14:24:03.363Z,2.47
2023-01-27T14:26:47.955Z,2.25
2023-01-27T14:29:47.128Z,2.20
2023-01-27T14:33:05.930Z,2.80
2023-01-27T14:36:05.704Z,2.35
2023-01-27T14:39:02.286Z,2.05
2023-01-27T14:42:24.562Z,2.10
2023-01-27T14:45:10.040Z,2.85
2023-01-27T14:48:11.009Z,1.92
2023-01-27T14:50:52.258Z,1.80
2023-01-27T14:53:49.941Z,2.28
2023-01-27T14:57:09.652Z,2.00
2023-01-27T15:00:21.385Z,1.75
2023-01-27T15:03:14.481Z,1.67
2023-01-27T15:06:00.092Z,1.60
2023-01-27T15:09:04.996Z,1.80
2023-01-27T15:14:57.670Z,1.80
2023-01-27T15:17:53.136Z,1.60
2023-01-27T15:20:50.393Z,1.75
2023-01-27T15:23:44.217Z,1.63
2023-01-27T15:26:14.255Z,1.58
2023-01-27T15:28:43.586Z,1.58
2023-01-27T15:31:19.555Z,1.95
2023-01-27T15:34:04.838Z,1.80
2023-01-27T15:36:40.255Z,1.95
2023-01-27T15:39:09.730Z,1.92
2023-01-27T15:42:03.403Z,1.90
2023-01-27T15:44:33.635Z,1.70
2023-01-27T15:47:26.268Z,1.92
2023-01-27T15:50:05.070Z,2.20
2023-01-27T15:52:42.760Z,1.80
2023-01-27T15:55:32.993Z,2.05
2023-01-27T15:58:31.952Z,2.15
2023-01-27T16:01:01.692Z,1.75
2023-01-27T16:03:43.976Z,1.80
2023-01-27T16:06:31.209Z,2.50
2023-01-27T16:09:03.113Z,2.00
2023-01-27T16:11:29.701Z,1.85
2023-01-27T16:14:11.606Z,1.73
2023-01-27T16:16:40.978Z,1.67
2023-01-27T16:19:18.540Z,2.20
2023-01-27T16:22:02.363Z,2.08
2023-01-27T16:24:39.411Z,1.83
2023-01-27T16:27:33.993Z,2.13
2023-01-27T16:33:06.450Z,2.10
2023-01-27T16:35:58.385Z,1.65
2023-01-27T16:38:31.675Z,1.83
2023-01-27T16:41:15.552Z,1.98
2023-01-27T16:43:49.802Z,1.63
2023-01-27T16:46:38.048Z,1.75
2023-01-27T16:49:18.905Z,1.90
2023-01-27T16:51:45.940Z,1.70
2023-01-27T16:54:29.091Z,1.75
2023-01-27T16:56:57.562Z,1.50
2023-01-27T16:59:28.179Z,2.00
2023-01-27T17:02:01.432Z,1.75
2023-01-27T17:04:29.977Z,2.05
2023-01-27T17:07:04.950Z,2.00
2023-01-27T17:09:39.043Z,1.98
2023-01-27T17:12:06.290Z,1.98
2023-01-27T17:14:38.391Z,2.20
2023-01-27T17:17:18.480Z,1.67
2023-01-27T17:19:49.907Z,1.80
2023-01-27T17:22:34.768Z,2.30
2023-01-27T17:25:15.954Z,1.88
2023-01-27T17:27:45.109Z,2.25
2023-01-27T17:30:18.439Z,2.45
2023-01-27T17:32:58.696Z,2.50
2023-01-27T17:35:33.573Z,2.35
2023-01-27T17:38:15.109Z,2.20
2023-01-27T17:40:48.535Z,2.03
2023-01-27T17:43:33.756Z,2.42
2023-01-27T17:46:16.931Z,2.17
2023-01-27T17:49:11.792Z,2.38
2023-01-27T17:51:58.009Z,2.55
2023-01-27T17:54:46.755Z,2.22
2023-01-27T17:57:27.233Z,2.40
2023-01-27T18:00:05.158Z,1.80
2023-01-27T18:02:36.628Z,1.95
2023-01-27T18:05:18.368Z,2.40
2023-01-27T18:07:45.713Z,2.08
2023-01-27T18:10:35.298Z,2.20
2023-01-27T18:13:19.887Z,2.25
2023-01-27T18:16:20.374Z,2.70
2023-01-27T18:18:49.420Z,2.20
2023-01-27T18:21:27.477Z,2.20
2023-01-27T18:23:57.968Z,2.00
2023-01-27T18:26:33.679Z,2.05
2023-01-27T18:29:13.150Z,2.13
2023-01-27T18:31:55.585Z,2.10
2023-01-27T18:34:30.441Z,2.13
2023-01-27T18:37:32.862Z,1.63
2023-01-27T18:40:02.126Z,2.13
2023-01-27T18:42:31.509Z,2.40
2023-01-27T18:44:58.381Z,2.00
2023-01-27T18:47:31.732Z,2.42
2023-01-27T18:50:14.495Z,2.83
2023-01-27T18:52:42.094Z,3.40
2023-01-27T18:55:23.266Z,3.30
2023-01-27T18:57:53.384Z,3.25
2023-01-27T19:00:34.950Z,3.17
2023-01-27T19:03:02.879Z,3.55
2023-01-27T19:05:33.380Z,3.47
2023-01-27T19:08:01.038Z,3.58
2023-01-27T19:10:32.451Z,3.50
2023-01-27T19:13:02.578Z,3.75
2023-01-27T19:15:34.633Z,3.30
2023-01-27T19:18:12.853Z,3.60
2023-01-27T19:20:39.632Z,4.28
2023-01-27T19:23:06.343Z,3.45
2023-01-27T19:25:33.140Z,3.40
2023-01-27T19:28:05.429Z,3.33
2023-01-27T19:30:37.850Z,3.63
2023-01-27T19:33:17.216Z,4.22
2023-01-27T19:35:48.596Z,3.97
2023-01-27T19:38:15.387Z,3.97
2023-01-27T19:40:42.955Z,4.07
2023-01-27T19:43:14.662Z,3.78
2023-01-27T19:45:42.819Z,4.00
2023-01-27T19:48:20.359Z,4.00
2023-01-27T19:50:47.763Z,4.40
2023-01-27T19:53:17.305Z,4.30
2023-01-27T19:55:46.627Z,4.90
2023-01-27T19:58:25.713Z,4.10
2023-01-27T20:00:54.065Z,4.25
2023-01-27T20:03:21.758Z,4.00
2023-01-27T20:05:48.873Z,3.97
2023-01-27T20:08:19.419Z,3.50
2023-01-27T20:10:46.915Z,3.50
2023-01-27T20:13:20.452Z,3.40
2023-01-27T20:15:47.767Z,3.22
2023-01-27T20:18:18.799Z,3.17
2023-01-27T20:20:46.699Z,2.95
2023-01-27T20:23:16.641Z,3.08
2023-01-27T20:25:44.215Z,2.88
2023-01-27T20:28:12.346Z,3.00
2023-01-27T20:30:39.099Z,2.35
2023-01-27T20:33:06.031Z,2.80
2023-01-27T20:35:32.938Z,2.92
2023-01-27T20:38:00.240Z,2.92
2023-01-27T20:40:30.086Z,2.78
2023-01-27T20:42:56.865Z,2.50
2023-01-27T20:45:23.794Z,2.78
2023-01-27T20:47:53.204Z,3.05
2023-01-27T20:50:22.295Z,2.97
2023-01-27T20:52:50.160Z,3.15
2023-01-27T20:55:22.453Z,3.05
2023-01-27T20:57:49.476Z,2.80
2023-01-27T21:00:18.926Z,3.00
2023-01-27T21:02:47.125Z,2.72
2023-01-27T21:05:14.653Z,2.70
2023-01-27T21:07:41.750Z,2.60
2023-01-27T21:10:09.273Z,2.95
2023-01-27T21:12:36.057Z,2.65
2023-01-27T21:15:07.998Z,2.53
2023-01-27T21:17:34.753Z,2.80
2023-01-27T21:20:01.895Z,2.42
2023-01-27T21:22:28.734Z,2.22
2023-01-27T21:24:55.538Z,2.28
2023-01-27T21:27:22.255Z,2.20
2023-01-27T21:29:49.184Z,2.45
2023-01-27T21:32:16.069Z,2.42
2023-01-27T21:34:42.990Z,2.22
2023-01-27T21:37:09.720Z,2.30
2023-01-27T21:39:36.499Z,2.17
2023-01-27T21:42:03.290Z,2.95
2023-01-27T21:44:48.972Z,1.92
2023-01-27T21:47:18.939Z,2.17
2023-01-27T21:50:02.850Z,3.03
2023-01-27T21:52:38.985Z,2.92
2023-01-27T21:55:09.791Z,2.90
2023-01-27T21:57:36.836Z,2.85
2023-01-27T22:00:07.184Z,3.10
2023-01-27T22:02:33.922Z,2.97
2023-01-27T22:05:00.949Z,2.97
2023-01-27T22:07:30.477Z,3.20
2023-01-27T22:09:57.784Z,3.28
2023-01-27T22:12:24.510Z,3.53
2023-01-27T22:14:52.223Z,2.83
2023-01-27T22:17:19.993Z,3.30
2023-01-27T22:19:47.035Z,3.15
2023-01-27T22:22:14.271Z,2.90
2023-01-27T22:24:41.512Z,3.03
2023-01-27T22:27:08.363Z,3.17
2023-01-27T22:29:35.175Z,3.10
2023-01-27T22:32:01.998Z,2.88
2023-01-27T22:34:29.143Z,3.03
2023-01-27T22:36:55.884Z,3.78
2023-01-27T22:39:23.487Z,2.83
2023-01-27T22:41:50.730Z,3.47
2023-01-27T22:44:18.066Z,3.28
2023-01-27T22:46:44.888Z,3.30
2023-01-27T22:49:11.882Z,3.63
2023-01-27T22:51:38.751Z,3.55
2023-01-27T22:54:05.596Z,3.80
2023-01-27T22:56:32.677Z,3.30
2023-01-27T22:59:00.499Z,3.38
2023-01-27T23:01:29.317Z,4.07
2023-01-27T23:03:56.114Z,3.65
2023-01-27T23:06:22.989Z,3.45
2023-01-27T23:08:50.012Z,4.18
2023-01-27T23:11:16.728Z,3.33
2023-01-27T23:13:43.479Z,3.95
2023-01-27T23:16:11.195Z,3.55
2023-01-27T23:18:37.955Z,3.17
2023-01-27T23:21:08.081Z,3.50
2023-01-27T23:23:35.873Z,3.60
2023-01-27T23:26:08.903Z,3.65
2023-01-27T23:28:38.880Z,3.70
2023-01-27T23:31:10.971Z,3.47
2023-01-27T23:33:40.038Z,3.53
2023-01-27T23:36:08.484Z,3.33
2023-01-27T23:38:36.920Z,3.92
2023-01-27T23:41:08.396Z,3.38
2023-01-27T23:43:35.131Z,3.53
2023-01-27T23:46:02.135Z,3.40
2023-01-27T23:48:29.812Z,3.53
2023-01-27T23:50:56.656Z,3.25
2023-01-27T23:53:23.409Z,3.42
2023-01-27T23:55:58.369Z,3.15
2023-01-27T23:58:26.219Z,3.45
